sensor_id;sensor_type;location;lat;lon;timestamp;pressure;altitude;pressure_sealevel;temperature;humidity
54554;BME280;40450;55.848;-3.572;2023-01-29T00:00:12;100361.04;;;4.29;86.27
54554;BME280;40450;55.848;-3.572;2023-01-29T00:02:41;100368.28;;;4.25;86.33
54554;BME280;40450;55.848;-3.572;2023-01-29T00:05:12;100368.60;;;4.01;86.94
54554;BME280;40450;55.848;-3.572;2023-01-29T00:07:42;100370.80;;;3.57;87.66
54554;BME280;40450;55.848;-3.572;2023-01-29T00:10:13;100374.21;;;3.77;87.58
54554;BME280;40450;55.848;-3.572;2023-01-29T00:12:43;100368.86;;;4.19;86.81
54554;BME280;40450;55.848;-3.572;2023-01-29T00:15:14;100365.71;;;4.79;85.00
54554;BME280;40450;55.848;-3.572;2023-01-29T00:17:44;100364.87;;;4.46;85.46
54554;BME280;40450;55.848;-3.572;2023-01-29T00:20:14;100373.08;;;4.24;86.67
54554;BME280;40450;55.848;-3.572;2023-01-29T00:22:45;100371.01;;;4.49;86.05
54554;BME280;40450;55.848;-3.572;2023-01-29T00:25:15;100370.59;;;4.32;86.68
54554;BME280;40450;55.848;-3.572;2023-01-29T00:27:46;100369.25;;;4.85;85.74
54554;BME280;40450;55.848;-3.572;2023-01-29T00:30:16;100365.44;;;4.98;85.04
54554;BME280;40450;55.848;-3.572;2023-01-29T00:32:46;100359.75;;;4.04;87.18
54554;BME280;40450;55.848;-3.572;2023-01-29T00:35:17;100360.93;;;4.42;86.69
54554;BME280;40450;55.848;-3.572;2023-01-29T00:37:47;100353.48;;;4.31;87.17
54554;BME280;40450;55.848;-3.572;2023-01-29T00:40:18;100351.14;;;4.35;87.24
54554;BME280;40450;55.848;-3.572;2023-01-29T00:42:48;100345.67;;;3.97;88.10
54554;BME280;40450;55.848;-3.572;2023-01-29T00:45:19;100337.51;;;4.18;87.68
54554;BME280;40450;55.848;-3.572;2023-01-29T00:47:49;100339.13;;;4.91;86.51
54554;BME280;40450;55.848;-3.572;2023-01-29T00:50:20;100338.13;;;5.46;84.93
54554;BME280;40450;55.848;-3.572;2023-01-29T00:52:50;100333.67;;;5.06;85.71
54554;BME280;40450;55.848;-3.572;2023-01-29T00:55:21;100324.49;;;4.68;86.87
54554;BME280;40450;55.848;-3.572;2023-01-29T00:57:51;100323.74;;;4.50;87.53
54554;BME280;40450;55.848;-3.572;2023-01-29T01:00:21;100325.03;;;4.44;87.56
54554;BME280;40450;55.848;-3.572;2023-01-29T01:02:52;100331.91;;;4.18;88.03
54554;BME280;40450;55.848;-3.572;2023-01-29T01:05:23;100337.86;;;4.86;86.97
54554;BME280;40450;55.848;-3.572;2023-01-29T01:07:55;100322.08;;;4.41;88.21
54554;BME280;40450;55.848;-3.572;2023-01-29T01:10:26;100318.61;;;4.45;88.00
54554;BME280;40450;55.848;-3.572;2023-01-29T01:12:55;100323.09;;;4.53;87.91
54554;BME280;40450;55.848;-3.572;2023-01-29T01:15:26;100322.56;;;5.18;87.07
54554;BME280;40450;55.848;-3.572;2023-01-29T01:17:56;100317.31;;;4.37;87.69
54554;BME280;40450;55.848;-3.572;2023-01-29T01:20:27;100316.21;;;3.82;89.74
54554;BME280;40450;55.848;-3.572;2023-01-29T01:22:56;100315.23;;;3.94;89.61
54554;BME280;40450;55.848;-3.572;2023-01-29T01:25:26;100305.51;;;3.68;90.52
54554;BME280;40450;55.848;-3.572;2023-01-29T01:27:57;100303.75;;;3.45;91.21
54554;BME280;40450;55.848;-3.572;2023-01-29T01:30:26;100297.18;;;3.49;90.82
54554;BME280;40450;55.848;-3.572;2023-01-29T01:32:57;100295.32;;;3.69;90.73
54554;BME280;40450;55.848;-3.572;2023-01-29T01:35:27;100288.76;;;3.11;91.67
54554;BME280;40450;55.848;-3.572;2023-01-29T01:37:57;100279.51;;;2.61;92.89
54554;BME280;40450;55.848;-3.572;2023-01-29T01:40:28;100272.88;;;1.80;94.45
54554;BME280;40450;55.848;-3.572;2023-01-29T01:42:59;100265.51;;;1.45;95.69
54554;BME280;40450;55.848;-3.572;2023-01-29T01:45:31;100263.73;;;0.59;96.90
54554;BME280;40450;55.848;-3.572;2023-01-29T01:48:02;100259.85;;;1.29;96.33
54554;BME280;40450;55.848;-3.572;2023-01-29T01:50:33;100262.14;;;1.89;95.17
54554;BME280;40450;55.848;-3.572;2023-01-29T01:53:04;100260.52;;;1.30;96.12
54554;BME280;40450;55.848;-3.572;2023-01-29T01:55:32;100254.34;;;1.37;95.97
54554;BME280;40450;55.848;-3.572;2023-01-29T01:58:08;100252.63;;;1.82;94.98
54554;BME280;40450;55.848;-3.572;2023-01-29T02:00:31;100246.65;;;2.73;93.49
54554;BME280;40450;55.848;-3.572;2023-01-29T02:03:03;100242.63;;;3.40;91.91
54554;BME280;40450;55.848;-3.572;2023-01-29T02:05:33;100236.26;;;3.32;91.46
54554;BME280;40450;55.848;-3.572;2023-01-29T02:08:03;100233.43;;;3.64;90.60
54554;BME280;40450;55.848;-3.572;2023-01-29T02:10:37;100238.08;;;3.64;90.29
54554;BME280;40450;55.848;-3.572;2023-01-29T02:13:04;100232.19;;;3.96;89.93
54554;BME280;40450;55.848;-3.572;2023-01-29T02:15:34;100229.97;;;3.80;89.56
54554;BME280;40450;55.848;-3.572;2023-01-29T02:18:04;100216.99;;;3.95;88.90
54554;BME280;40450;55.848;-3.572;2023-01-29T02:20:35;100220.46;;;3.79;89.02
54554;BME280;40450;55.848;-3.572;2023-01-29T02:23:21;100218.16;;;4.43;87.74
54554;BME280;40450;55.848;-3.572;2023-01-29T02:25:49;100221.26;;;5.45;86.00
54554;BME280;40450;55.848;-3.572;2023-01-29T02:28:15;100226.25;;;5.28;84.31
54554;BME280;40450;55.848;-3.572;2023-01-29T02:30:40;100216.61;;;5.91;84.14
54554;BME280;40450;55.848;-3.572;2023-01-29T02:33:13;100222.84;;;4.95;85.14
54554;BME280;40450;55.848;-3.572;2023-01-29T02:35:41;100218.86;;;5.26;85.14
54554;BME280;40450;55.848;-3.572;2023-01-29T02:38:12;100215.62;;;4.92;85.24
54554;BME280;40450;55.848;-3.572;2023-01-29T02:40:42;100205.92;;;4.76;86.03
54554;BME280;40450;55.848;-3.572;2023-01-29T02:43:16;100199.54;;;3.85;88.21
54554;BME280;40450;55.848;-3.572;2023-01-29T02:45:45;100203.65;;;4.12;87.70
54554;BME280;40450;55.848;-3.572;2023-01-29T02:48:13;100205.10;;;4.37;86.90
54554;BME280;40450;55.848;-3.572;2023-01-29T02:50:43;100202.59;;;4.68;86.61
54554;BME280;40450;55.848;-3.572;2023-01-29T02:53:15;100200.24;;;5.12;85.64
54554;BME280;40450;55.848;-3.572;2023-01-29T02:55:45;100198.21;;;5.04;85.44
54554;BME280;40450;55.848;-3.572;2023-01-29T02:58:15;100198.26;;;4.55;86.79
54554;BME280;40450;55.848;-3.572;2023-01-29T03:00:43;100194.34;;;3.58;88.83
54554;BME280;40450;55.848;-3.572;2023-01-29T03:03:15;100185.23;;;3.16;89.83
54554;BME280;40450;55.848;-3.572;2023-01-29T03:05:48;100173.88;;;2.66;91.60
54554;BME280;40450;55.848;-3.572;2023-01-29T03:08:17;100161.06;;;2.24;92.55
54554;BME280;40450;55.848;-3.572;2023-01-29T03:10:47;100162.92;;;1.81;93.83
54554;BME280;40450;55.848;-3.572;2023-01-29T03:13:17;100155.13;;;2.10;93.27
54554;BME280;40450;55.848;-3.572;2023-01-29T03:15:46;100149.36;;;1.66;94.34
54554;BME280;40450;55.848;-3.572;2023-01-29T03:18:16;100140.14;;;2.63;92.20
54554;BME280;40450;55.848;-3.572;2023-01-29T03:20:47;100137.78;;;2.61;92.11
54554;BME280;40450;55.848;-3.572;2023-01-29T03:23:20;100131.71;;;2.82;91.47
54554;BME280;40450;55.848;-3.572;2023-01-29T03:25:46;100131.54;;;2.92;91.23
54554;BME280;40450;55.848;-3.572;2023-01-29T03:28:17;100124.50;;;2.90;91.23
54554;BME280;40450;55.848;-3.572;2023-01-29T03:30:50;100119.73;;;1.93;92.97
54554;BME280;40450;55.848;-3.572;2023-01-29T03:33:19;100110.30;;;2.33;92.85
54554;BME280;40450;55.848;-3.572;2023-01-29T03:35:51;100108.12;;;2.84;91.75
54554;BME280;40450;55.848;-3.572;2023-01-29T03:38:19;100099.83;;;2.47;92.69
54554;BME280;40450;55.848;-3.572;2023-01-29T03:40:52;100090.41;;;1.88;94.01
54554;BME280;40450;55.848;-3.572;2023-01-29T03:43:27;100081.66;;;1.66;94.83
54554;BME280;40450;55.848;-3.572;2023-01-29T03:45:57;100065.11;;;1.21;95.27
54554;BME280;40450;55.848;-3.572;2023-01-29T03:48:27;100061.16;;;1.96;94.32
54554;BME280;40450;55.848;-3.572;2023-01-29T03:50:55;100054.01;;;1.07;95.96
54554;BME280;40450;55.848;-3.572;2023-01-29T03:53:24;100050.09;;;0.91;96.77
54554;BME280;40450;55.848;-3.572;2023-01-29T03:55:56;100045.83;;;0.78;96.97
54554;BME280;40450;55.848;-3.572;2023-01-29T03:58:27;100035.49;;;0.82;97.12
54554;BME280;40450;55.848;-3.572;2023-01-29T04:00:55;100032.29;;;0.20;98.16
54554;BME280;40450;55.848;-3.572;2023-01-29T04:03:25;100020.15;;;1.01;96.88
54554;BME280;40450;55.848;-3.572;2023-01-29T04:05:57;100026.71;;;0.72;97.42
54554;BME280;40450;55.848;-3.572;2023-01-29T04:08:28;100022.33;;;1.20;96.89
54554;BME280;40450;55.848;-3.572;2023-01-29T04:10:55;100017.25;;;1.50;96.11
54554;BME280;40450;55.848;-3.572;2023-01-29T04:13:25;100026.45;;;1.61;95.83
54554;BME280;40450;55.848;-3.572;2023-01-29T04:15:57;100030.82;;;2.82;93.62
54554;BME280;40450;55.848;-3.572;2023-01-29T04:18:25;100032.79;;;3.21;92.60
54554;BME280;40450;55.848;-3.572;2023-01-29T04:20:55;100026.64;;;3.76;90.99
54554;BME280;40450;55.848;-3.572;2023-01-29T04:23:26;100023.07;;;4.07;90.31
54554;BME280;40450;55.848;-3.572;2023-01-29T04:26:11;100028.25;;;3.68;90.67
54554;BME280;40450;55.848;-3.572;2023-01-29T04:28:31;100020.12;;;4.38;89.84
54554;BME280;40450;55.848;-3.572;2023-01-29T04:30:58;100017.57;;;3.79;90.32
54554;BME280;40450;55.848;-3.572;2023-01-29T04:33:32;100019.23;;;3.48;90.79
54554;BME280;40450;55.848;-3.572;2023-01-29T04:36:10;100020.37;;;3.30;91.57
54554;BME280;40450;55.848;-3.572;2023-01-29T04:38:35;100015.13;;;3.30;91.27
54554;BME280;40450;55.848;-3.572;2023-01-29T04:41:06;100014.26;;;3.50;91.25
54554;BME280;40450;55.848;-3.572;2023-01-29T04:43:34;100015.11;;;3.09;91.59
54554;BME280;40450;55.848;-3.572;2023-01-29T04:46:09;100016.96;;;2.81;92.71
54554;BME280;40450;55.848;-3.572;2023-01-29T04:48:38;100019.84;;;2.79;93.19
54554;BME280;40450;55.848;-3.572;2023-01-29T04:51:07;100003.17;;;3.82;91.56
54554;BME280;40450;55.848;-3.572;2023-01-29T04:53:36;99995.50;;;3.62;91.68
54554;BME280;40450;55.848;-3.572;2023-01-29T04:56:06;100000.41;;;3.72;91.18
54554;BME280;40450;55.848;-3.572;2023-01-29T04:58:36;99993.83;;;3.38;92.33
54554;BME280;40450;55.848;-3.572;2023-01-29T05:01:05;99990.54;;;3.23;92.47
54554;BME280;40450;55.848;-3.572;2023-01-29T05:03:34;99989.13;;;2.54;94.40
54554;BME280;40450;55.848;-3.572;2023-01-29T05:06:04;99989.20;;;2.58;94.69
54554;BME280;40450;55.848;-3.572;2023-01-29T05:08:36;99979.80;;;2.10;95.84
54554;BME280;40450;55.848;-3.572;2023-01-29T05:11:05;99969.74;;;1.54;97.20
54554;BME280;40450;55.848;-3.572;2023-01-29T05:13:37;99970.62;;;1.79;97.11
54554;BME280;40450;55.848;-3.572;2023-01-29T05:16:08;99968.60;;;1.19;97.79
54554;BME280;40450;55.848;-3.572;2023-01-29T05:18:35;99964.70;;;1.48;97.49
54554;BME280;40450;55.848;-3.572;2023-01-29T05:21:07;99965.51;;;1.40;97.83
54554;BME280;40450;55.848;-3.572;2023-01-29T05:23:36;99967.45;;;1.60;97.85
54554;BME280;40450;55.848;-3.572;2023-01-29T05:26:07;99965.75;;;0.69;99.40
54554;BME280;40450;55.848;-3.572;2023-01-29T05:28:37;99963.73;;;0.46;100.00
54554;BME280;40450;55.848;-3.572;2023-01-29T05:31:07;99965.91;;;0.32;100.00
54554;BME280;40450;55.848;-3.572;2023-01-29T05:33:38;99967.35;;;0.78;99.79
54554;BME280;40450;55.848;-3.572;2023-01-29T05:36:09;99968.19;;;1.11;99.05
54554;BME280;40450;55.848;-3.572;2023-01-29T05:38:39;99956.36;;;1.05;99.31
54554;BME280;40450;55.848;-3.572;2023-01-29T05:41:09;99947.69;;;0.71;99.90
54554;BME280;40450;55.848;-3.572;2023-01-29T05:43:40;99969.81;;;1.61;99.02
54554;BME280;40450;55.848;-3.572;2023-01-29T05:46:10;99967.65;;;1.61;98.75
54554;BME280;40450;55.848;-3.572;2023-01-29T05:48:41;99951.82;;;1.58;98.38
54554;BME280;40450;55.848;-3.572;2023-01-29T05:51:11;99941.32;;;2.00;97.77
54554;BME280;40450;55.848;-3.572;2023-01-29T05:53:41;99944.89;;;2.12;97.71
54554;BME280;40450;55.848;-3.572;2023-01-29T05:56:12;99949.27;;;2.43;97.06
54554;BME280;40450;55.848;-3.572;2023-01-29T05:58:42;99931.99;;;2.84;96.58
54554;BME280;40450;55.848;-3.572;2023-01-29T06:01:15;99926.42;;;2.79;96.13
54554;BME280;40450;55.848;-3.572;2023-01-29T06:03:43;99923.58;;;2.83;95.92
54554;BME280;40450;55.848;-3.572;2023-01-29T06:06:14;99928.44;;;3.10;95.21
54554;BME280;40450;55.848;-3.572;2023-01-29T06:08:44;99934.28;;;1.95;97.18
54554;BME280;40450;55.848;-3.572;2023-01-29T06:11:16;99920.02;;;1.40;98.40
54554;BME280;40450;55.848;-3.572;2023-01-29T06:13:45;99915.84;;;0.78;99.50
54554;BME280;40450;55.848;-3.572;2023-01-29T06:16:15;99910.31;;;-0.13;100.00
54554;BME280;40450;55.848;-3.572;2023-01-29T06:18:46;99908.79;;;-0.50;100.00
54554;BME280;40450;55.848;-3.572;2023-01-29T06:21:16;99892.71;;;-0.29;100.00
54554;BME280;40450;55.848;-3.572;2023-01-29T06:23:47;99893.65;;;0.17;100.00
54554;BME280;40450;55.848;-3.572;2023-01-29T06:26:17;99902.24;;;0.53;100.00
54554;BME280;40450;55.848;-3.572;2023-01-29T06:28:48;99893.50;;;1.12;99.70
54554;BME280;40450;55.848;-3.572;2023-01-29T06:31:18;99900.60;;;0.80;100.00
54554;BME280;40450;55.848;-3.572;2023-01-29T06:33:48;99906.42;;;1.28;99.70
54554;BME280;40450;55.848;-3.572;2023-01-29T06:36:19;99901.72;;;1.75;99.07
54554;BME280;40450;55.848;-3.572;2023-01-29T06:38:49;99890.17;;;0.65;100.00
54554;BME280;40450;55.848;-3.572;2023-01-29T06:41:20;99877.56;;;0.41;100.00
54554;BME280;40450;55.848;-3.572;2023-01-29T06:43:50;99887.38;;;0.80;100.00
54554;BME280;40450;55.848;-3.572;2023-01-29T06:46:20;99886.43;;;1.20;100.00
54554;BME280;40450;55.848;-3.572;2023-01-29T06:48:51;99870.23;;;0.92;100.00
54554;BME280;40450;55.848;-3.572;2023-01-29T06:51:21;99862.27;;;1.41;99.78
54554;BME280;40450;55.848;-3.572;2023-01-29T06:53:52;99854.04;;;1.09;100.00
54554;BME280;40450;55.848;-3.572;2023-01-29T06:56:22;99854.26;;;0.27;100.00
54554;BME280;40450;55.848;-3.572;2023-01-29T06:58:52;99846.66;;;0.13;100.00
54554;BME280;40450;55.848;-3.572;2023-01-29T07:01:23;99845.19;;;0.13;100.00
54554;BME280;40450;55.848;-3.572;2023-01-29T07:03:53;99840.72;;;0.16;100.00
54554;BME280;40450;55.848;-3.572;2023-01-29T07:06:27;99825.02;;;-0.04;100.00
54554;BME280;40450;55.848;-3.572;2023-01-29T07:08:54;99810.05;;;-0.31;100.00
54554;BME280;40450;55.848;-3.572;2023-01-29T07:11:24;99809.99;;;0.13;100.00
54554;BME280;40450;55.848;-3.572;2023-01-29T07:13:55;99812.89;;;0.44;100.00
54554;BME280;40450;55.848;-3.572;2023-01-29T07:16:25;99817.01;;;0.16;100.00
54554;BME280;40450;55.848;-3.572;2023-01-29T07:18:56;99811.13;;;0.63;100.00
54554;BME280;40450;55.848;-3.572;2023-01-29T07:21:26;99800.08;;;0.26;100.00
54554;BME280;40450;55.848;-3.572;2023-01-29T07:23:57;99804.21;;;0.18;100.00
54554;BME280;40450;55.848;-3.572;2023-01-29T07:26:27;99800.12;;;0.60;100.00
54554;BME280;40450;55.848;-3.572;2023-01-29T07:28:57;99793.74;;;0.10;100.00
54554;BME280;40450;55.848;-3.572;2023-01-29T07:31:28;99792.30;;;0.41;100.00
54554;BME280;40450;55.848;-3.572;2023-01-29T07:33:58;99803.46;;;0.64;100.00
54554;BME280;40450;55.848;-3.572;2023-01-29T07:36:29;99796.01;;;0.84;100.00
54554;BME280;40450;55.848;-3.572;2023-01-29T07:38:59;99793.10;;;1.21;100.00
54554;BME280;40450;55.848;-3.572;2023-01-29T07:41:29;99783.00;;;0.84;100.00
54554;BME280;40450;55.848;-3.572;2023-01-29T07:44:00;99780.60;;;0.77;100.00
54554;BME280;40450;55.848;-3.572;2023-01-29T07:46:30;99769.94;;;1.39;100.00
54554;BME280;40450;55.848;-3.572;2023-01-29T07:49:01;99768.12;;;1.22;100.00
54554;BME280;40450;55.848;-3.572;2023-01-29T07:51:31;99770.20;;;0.28;100.00
54554;BME280;40450;55.848;-3.572;2023-01-29T07:54:01;99776.78;;;0.65;100.00
54554;BME280;40450;55.848;-3.572;2023-01-29T07:56:32;99767.44;;;0.96;100.00
54554;BME280;40450;55.848;-3.572;2023-01-29T07:59:02;99771.64;;;0.83;100.00
54554;BME280;40450;55.848;-3.572;2023-01-29T08:01:33;99773.96;;;1.31;100.00
54554;BME280;40450;55.848;-3.572;2023-01-29T08:04:03;99778.53;;;1.70;100.00
54554;BME280;40450;55.848;-3.572;2023-01-29T08:06:34;99775.25;;;1.34;100.00
54554;BME280;40450;55.848;-3.572;2023-01-29T08:09:04;99779.34;;;1.82;100.00
54554;BME280;40450;55.848;-3.572;2023-01-29T08:11:34;99775.83;;;1.24;100.00
54554;BME280;40450;55.848;-3.572;2023-01-29T08:14:05;99770.59;;;1.01;100.00
54554;BME280;40450;55.848;-3.572;2023-01-29T08:16:35;99779.33;;;1.36;100.00
54554;BME280;40450;55.848;-3.572;2023-01-29T08:19:06;99774.66;;;2.31;99.50
54554;BME280;40450;55.848;-3.572;2023-01-29T08:21:36;99765.54;;;2.66;98.61
54554;BME280;40450;55.848;-3.572;2023-01-29T08:24:07;99762.52;;;2.58;98.36
54554;BME280;40450;55.848;-3.572;2023-01-29T08:26:37;99765.29;;;1.79;99.71
54554;BME280;40450;55.848;-3.572;2023-01-29T08:29:09;99765.59;;;1.90;99.53
54554;BME280;40450;55.848;-3.572;2023-01-29T08:31:38;99763.70;;;2.06;99.51
54554;BME280;40450;55.848;-3.572;2023-01-29T08:34:08;99759.03;;;2.14;99.48
54554;BME280;40450;55.848;-3.572;2023-01-29T08:36:39;99758.36;;;2.01;99.42
54554;BME280;40450;55.848;-3.572;2023-01-29T08:39:09;99771.17;;;1.37;100.00
54554;BME280;40450;55.848;-3.572;2023-01-29T08:41:40;99762.68;;;1.74;99.78
54554;BME280;40450;55.848;-3.572;2023-01-29T08:44:10;99760.34;;;1.86;99.79
54554;BME280;40450;55.848;-3.572;2023-01-29T08:46:40;99758.88;;;1.41;100.00
54554;BME280;40450;55.848;-3.572;2023-01-29T08:49:11;99760.56;;;1.36;100.00
54554;BME280;40450;55.848;-3.572;2023-01-29T08:51:41;99749.59;;;0.62;100.00
54554;BME280;40450;55.848;-3.572;2023-01-29T08:54:11;99748.52;;;0.27;100.00
54554;BME280;40450;55.848;-3.572;2023-01-29T08:56:42;99734.80;;;1.05;100.00
54554;BME280;40450;55.848;-3.572;2023-01-29T08:59:12;99737.66;;;1.19;100.00
54554;BME280;40450;55.848;-3.572;2023-01-29T09:01:43;99738.00;;;1.28;100.00
54554;BME280;40450;55.848;-3.572;2023-01-29T09:04:13;99715.37;;;1.79;100.00
54554;BME280;40450;55.848;-3.572;2023-01-29T09:06:44;99694.99;;;1.19;100.00
54554;BME280;40450;55.848;-3.572;2023-01-29T09:09:15;99682.66;;;0.97;100.00
54554;BME280;40450;55.848;-3.572;2023-01-29T09:11:45;99687.27;;;0.22;100.00
54554;BME280;40450;55.848;-3.572;2023-01-29T09:14:15;99698.05;;;0.71;100.00
54554;BME280;40450;55.848;-3.572;2023-01-29T09:16:46;99697.11;;;0.72;100.00
54554;BME280;40450;55.848;-3.572;2023-01-29T09:19:16;99714.52;;;1.63;100.00
54554;BME280;40450;55.848;-3.572;2023-01-29T09:21:47;99721.48;;;2.31;100.00
54554;BME280;40450;55.848;-3.572;2023-01-29T09:24:17;99720.32;;;3.62;98.55
54554;BME280;40450;55.848;-3.572;2023-01-29T09:26:48;99699.58;;;3.82;98.36
54554;BME280;40450;55.848;-3.572;2023-01-29T09:29:18;99723.84;;;4.08;97.43
54554;BME280;40450;55.848;-3.572;2023-01-29T09:31:48;99723.70;;;4.63;96.50
54554;BME280;40450;55.848;-3.572;2023-01-29T09:34:19;99720.50;;;4.36;96.37
54554;BME280;40450;55.848;-3.572;2023-01-29T09:36:51;99699.57;;;4.51;95.73
54554;BME280;40450;55.848;-3.572;2023-01-29T09:39:19;99693.13;;;4.41;96.15
54554;BME280;40450;55.848;-3.572;2023-01-29T09:41:55;99668.22;;;3.63;97.13
54554;BME280;40450;55.848;-3.572;2023-01-29T09:44:26;99668.54;;;3.47;97.92
54554;BME280;40450;55.848;-3.572;2023-01-29T09:46:51;99660.29;;;2.59;99.37
54554;BME280;40450;55.848;-3.572;2023-01-29T09:49:25;99657.68;;;2.83;99.30
54554;BME280;40450;55.848;-3.572;2023-01-29T09:51:54;99654.62;;;2.90;99.38
54554;BME280;40450;55.848;-3.572;2023-01-29T09:54:24;99646.60;;;2.63;99.93
54554;BME280;40450;55.848;-3.572;2023-01-29T09:56:55;99637.93;;;2.71;99.92
54554;BME280;40450;55.848;-3.572;2023-01-29T09:59:24;99634.14;;;2.31;100.00
54554;BME280;40450;55.848;-3.572;2023-01-29T10:01:58;99624.37;;;2.88;99.85
54554;BME280;40450;55.848;-3.572;2023-01-29T10:07:04;99630.29;;;2.38;100.00
54554;BME280;40450;55.848;-3.572;2023-01-29T10:12:01;99616.63;;;2.45;100.00
54554;BME280;40450;55.848;-3.572;2023-01-29T10:14:31;99620.34;;;2.27;100.00
54554;BME280;40450;55.848;-3.572;2023-01-29T10:17:05;99615.90;;;2.44;100.00
54554;BME280;40450;55.848;-3.572;2023-01-29T10:19:37;99607.52;;;2.85;100.00
54554;BME280;40450;55.848;-3.572;2023-01-29T10:22:07;99602.28;;;2.79;100.00
54554;BME280;40450;55.848;-3.572;2023-01-29T10:24:34;99604.84;;;3.69;99.20
54554;BME280;40450;55.848;-3.572;2023-01-29T10:26:56;99604.44;;;3.57;99.35
54554;BME280;40450;55.848;-3.572;2023-01-29T10:29:28;99610.05;;;3.59;98.91
54554;BME280;40450;55.848;-3.572;2023-01-29T10:32:00;99611.60;;;4.03;98.48
54554;BME280;40450;55.848;-3.572;2023-01-29T10:34:30;99605.45;;;3.71;98.61
54554;BME280;40450;55.848;-3.572;2023-01-29T10:36:58;99601.40;;;4.19;97.92
54554;BME280;40450;55.848;-3.572;2023-01-29T10:39:29;99589.22;;;5.51;95.96
54554;BME280;40450;55.848;-3.572;2023-01-29T10:42:11;99591.24;;;4.67;96.58
54554;BME280;40450;55.848;-3.572;2023-01-29T10:44:37;99587.56;;;4.42;97.28
54554;BME280;40450;55.848;-3.572;2023-01-29T10:47:14;99569.85;;;4.95;96.34
54554;BME280;40450;55.848;-3.572;2023-01-29T10:49:44;99584.86;;;4.18;97.55
54554;BME280;40450;55.848;-3.572;2023-01-29T10:52:09;99578.93;;;4.55;97.51
54554;BME280;40450;55.848;-3.572;2023-01-29T10:54:45;99564.97;;;3.65;98.93
54554;BME280;40450;55.848;-3.572;2023-01-29T10:57:08;99564.48;;;3.74;99.06
54554;BME280;40450;55.848;-3.572;2023-01-29T10:59:43;99567.47;;;3.02;100.00
54554;BME280;40450;55.848;-3.572;2023-01-29T11:04:33;99549.47;;;3.18;100.00
54554;BME280;40450;55.848;-3.572;2023-01-29T11:07:03;99543.57;;;2.96;100.00
54554;BME280;40450;55.848;-3.572;2023-01-29T11:09:36;99540.66;;;3.53;100.00
54554;BME280;40450;55.848;-3.572;2023-01-29T11:12:09;99538.09;;;2.85;100.00
54554;BME280;40450;55.848;-3.572;2023-01-29T11:14:41;99541.79;;;3.03;100.00
54554;BME280;40450;55.848;-3.572;2023-01-29T11:17:04;99532.69;;;3.46;100.00
54554;BME280;40450;55.848;-3.572;2023-01-29T11:19:37;99525.86;;;3.67;100.00
54554;BME280;40450;55.848;-3.572;2023-01-29T11:22:11;99527.28;;;3.66;100.00
54554;BME280;40450;55.848;-3.572;2023-01-29T11:24:35;99525.93;;;3.68;100.00
54554;BME280;40450;55.848;-3.572;2023-01-29T11:27:14;99523.22;;;3.64;100.00
54554;BME280;40450;55.848;-3.572;2023-01-29T11:29:38;99524.40;;;3.85;100.00
54554;BME280;40450;55.848;-3.572;2023-01-29T11:32:10;99525.70;;;3.42;100.00
54554;BME280;40450;55.848;-3.572;2023-01-29T11:37:15;99519.95;;;3.62;100.00
54554;BME280;40450;55.848;-3.572;2023-01-29T11:39:43;99509.24;;;3.89;100.00
54554;BME280;40450;55.848;-3.572;2023-01-29T11:42:17;99491.06;;;3.61;100.00
54554;BME280;40450;55.848;-3.572;2023-01-29T11:44:41;99484.44;;;3.53;100.00
54554;BME280;40450;55.848;-3.572;2023-01-29T11:47:15;99484.83;;;3.34;100.00
54554;BME280;40450;55.848;-3.572;2023-01-29T11:49:44;99473.27;;;3.01;100.00
54554;BME280;40450;55.848;-3.572;2023-01-29T11:52:10;99470.64;;;2.94;100.00
54554;BME280;40450;55.848;-3.572;2023-01-29T11:54:44;99463.03;;;3.01;100.00
54554;BME280;40450;55.848;-3.572;2023-01-29T11:57:20;99452.81;;;2.85;100.00
54554;BME280;40450;55.848;-3.572;2023-01-29T11:59:42;99455.47;;;3.03;100.00
54554;BME280;40450;55.848;-3.572;2023-01-29T12:02:20;99441.41;;;3.41;100.00
54554;BME280;40450;55.848;-3.572;2023-01-29T12:04:41;99445.40;;;3.48;100.00
54554;BME280;40450;55.848;-3.572;2023-01-29T12:07:13;99446.92;;;3.67;100.00
54554;BME280;40450;55.848;-3.572;2023-01-29T12:09:48;99443.16;;;3.92;100.00
54554;BME280;40450;55.848;-3.572;2023-01-29T12:14:43;99430.55;;;4.84;99.33
54554;BME280;40450;55.848;-3.572;2023-01-29T12:17:18;99425.04;;;5.05;98.96
54554;BME280;40450;55.848;-3.572;2023-01-29T12:19:46;99403.30;;;4.31;99.97
54554;BME280;40450;55.848;-3.572;2023-01-29T12:22:18;99393.18;;;4.67;99.50
54554;BME280;40450;55.848;-3.572;2023-01-29T12:24:49;99405.13;;;4.71;99.23
54554;BME280;40450;55.848;-3.572;2023-01-29T12:27:20;99398.39;;;4.77;99.29
54554;BME280;40450;55.848;-3.572;2023-01-29T12:29:50;99386.22;;;4.60;99.79
54554;BME280;40450;55.848;-3.572;2023-01-29T12:32:26;99393.64;;;4.44;99.99
54554;BME280;40450;55.848;-3.572;2023-01-29T12:34:49;99369.69;;;4.40;100.00
54554;BME280;40450;55.848;-3.572;2023-01-29T12:37:21;99376.17;;;4.09;100.00
54554;BME280;40450;55.848;-3.572;2023-01-29T12:39:48;99363.14;;;4.23;100.00
54554;BME280;40450;55.848;-3.572;2023-01-29T12:42:19;99353.87;;;3.75;100.00
54554;BME280;40450;55.848;-3.572;2023-01-29T12:44:50;99351.68;;;3.82;100.00
54554;BME280;40450;55.848;-3.572;2023-01-29T12:47:22;99338.59;;;3.83;100.00
54554;BME280;40450;55.848;-3.572;2023-01-29T12:49:52;99342.16;;;3.77;100.00
54554;BME280;40450;55.848;-3.572;2023-01-29T12:52:21;99336.90;;;3.61;100.00
54554;BME280;40450;55.848;-3.572;2023-01-29T12:54:54;99321.53;;;3.48;100.00
54554;BME280;40450;55.848;-3.572;2023-01-29T12:57:22;99310.30;;;3.27;100.00
54554;BME280;40450;55.848;-3.572;2023-01-29T12:59:52;99301.55;;;3.06;100.00
54554;BME280;40450;55.848;-3.572;2023-01-29T13:02:29;99282.14;;;3.29;100.00
54554;BME280;40450;55.848;-3.572;2023-01-29T13:04:56;99282.43;;;3.26;100.00
54554;BME280;40450;55.848;-3.572;2023-01-29T13:07:25;99274.28;;;3.19;100.00
54554;BME280;40450;55.848;-3.572;2023-01-29T13:09:54;99272.71;;;3.23;100.00
54554;BME280;40450;55.848;-3.572;2023-01-29T13:12:22;99266.82;;;3.56;100.00
54554;BME280;40450;55.848;-3.572;2023-01-29T13:14:56;99255.60;;;3.28;100.00
54554;BME280;40450;55.848;-3.572;2023-01-29T13:17:27;99230.28;;;2.73;100.00
54554;BME280;40450;55.848;-3.572;2023-01-29T13:19:55;99230.53;;;2.87;100.00